createdAt,value
2023-04-03T00:00:12.569Z,95004.00
2023-04-03T00:01:12.605Z,95000.00
2023-04-03T00:02:12.621Z,95002.00
2023-04-03T00:03:12.624Z,95000.00
2023-04-03T00:04:12.618Z,94998.00
2023-04-03T00:05:12.604Z,95002.00
2023-04-03T00:06:12.614Z,95000.00
2023-04-03T00:07:12.617Z,95000.00
2023-04-03T00:08:12.615Z,95000.00
2023-04-03T00:09:12.673Z,95002.00
2023-04-03T00:10:12.637Z,95004.00
2023-04-03T00:11:12.671Z,95006.00
2023-04-03T00:12:12.693Z,95006.00
2023-04-03T00:13:12.677Z,95010.00
2023-04-03T00:14:12.685Z,95008.00
2023-04-03T00:15:12.701Z,95008.00
2023-04-03T00:16:12.767Z,95010.00
2023-04-03T00:17:12.735Z,95008.00
2023-04-03T00:18:12.761Z,95010.00
2023-04-03T00:19:12.786Z,95010.00
2023-04-03T00:20:12.789Z,95008.00
2023-04-03T00:21:12.781Z,95010.00
2023-04-03T00:22:12.849Z,95010.00
2023-04-03T00:23:12.874Z,95008.00
2023-04-03T00:24:12.838Z,95012.00
2023-04-03T00:25:12.841Z,95014.00
2023-04-03T00:26:12.952Z,95014.00
2023-04-03T00:27:12.959Z,95012.00
2023-04-03T00:28:12.928Z,95012.00
2023-04-03T00:29:12.924Z,95016.00
2023-04-03T00:30:12.941Z,95016.00
2023-04-03T00:31:12.980Z,95014.00
2023-04-03T00:32:12.965Z,95020.00
2023-04-03T00:33:12.991Z,95016.00
2023-04-03T00:34:13.011Z,95018.00
2023-04-03T00:35:13.039Z,95020.00
2023-04-03T00:36:13.133Z,95020.00
2023-04-03T00:37:13.059Z,95022.00
2023-04-03T00:38:13.105Z,95020.00
2023-04-03T00:39:13.118Z,95022.00
2023-04-03T00:40:13.131Z,95022.00
2023-04-03T00:41:13.170Z,95022.00
2023-04-03T00:42:13.165Z,95024.00
2023-04-03T00:43:13.178Z,95022.00
2023-04-03T00:44:13.199Z,95024.00
2023-04-03T00:45:13.194Z,95024.00
2023-04-03T00:46:13.253Z,95030.00
2023-04-03T00:47:13.274Z,95028.00
2023-04-03T00:48:13.286Z,95030.00
2023-04-03T00:49:13.292Z,95032.00
2023-04-03T00:50:13.344Z,95032.00
2023-04-03T00:51:13.329Z,95032.00
2023-04-03T00:52:13.341Z,95034.00
2023-04-03T00:53:13.361Z,95034.00
2023-04-03T00:54:13.354Z,95038.00
2023-04-03T00:55:13.382Z,95036.00
2023-04-03T00:56:13.396Z,95034.00
2023-04-03T00:57:13.488Z,95034.00
2023-04-03T00:58:13.462Z,95034.00
2023-04-03T00:59:13.433Z,95036.00
2023-04-03T01:00:13.504Z,95036.00
2023-04-03T01:01:13.523Z,95038.00
2023-04-03T01:02:13.505Z,95036.00
2023-04-03T01:03:13.513Z,95036.00
2023-04-03T01:04:13.633Z,95036.00
2023-04-03T01:05:13.588Z,95038.00
2023-04-03T01:06:13.615Z,95038.00
2023-04-03T01:07:13.644Z,95038.00
2023-04-03T01:08:13.648Z,95040.00
2023-04-03T01:09:13.642Z,95042.00
2023-04-03T01:10:13.723Z,95043.00
2023-04-03T01:11:13.723Z,95042.00
2023-04-03T01:12:13.729Z,95045.00
2023-04-03T01:13:13.748Z,95045.00
2023-04-03T01:14:13.758Z,95045.00
2023-04-03T01:15:13.821Z,95045.00
2023-04-03T01:16:13.827Z,95045.00
2023-04-03T01:17:13.803Z,95045.00
2023-04-03T01:18:13.886Z,95045.00
2023-04-03T01:19:13.907Z,95047.00
2023-04-03T01:20:13.902Z,95049.00
2023-04-03T01:21:13.933Z,95047.00
2023-04-03T01:22:13.952Z,95047.00
2023-04-03T01:23:13.969Z,95049.00
2023-04-03T01:24:14.025Z,95047.00
2023-04-03T01:25:14.050Z,95049.00
2023-04-03T01:26:14.054Z,95047.00
2023-04-03T01:27:14.052Z,95045.00
2023-04-03T01:28:14.056Z,95047.00
2023-04-03T01:29:14.103Z,95045.00
2023-04-03T01:30:14.114Z,95049.00
2023-04-03T01:31:14.137Z,95049.00
2023-04-03T01:32:14.125Z,95049.00
2023-04-03T01:33:14.135Z,95053.00
2023-04-03T01:34:14.207Z,95051.00
2023-04-03T01:35:14.209Z,95053.00
2023-04-03T01:36:14.234Z,95055.00
2023-04-03T01:37:14.258Z,95055.00
2023-04-03T01:38:14.257Z,95057.00
2023-04-03T01:39:14.291Z,95059.00
2023-04-03T01:40:14.308Z,95059.00
2023-04-03T01:41:14.336Z,95055.00
2023-04-03T01:42:14.341Z,95061.00
2023-04-03T01:43:14.402Z,95061.00
2023-04-03T01:44:14.421Z,95057.00
2023-04-03T01:45:14.414Z,95057.00
2023-04-03T01:46:14.517Z,95063.00
2023-04-03T01:47:14.497Z,95057.00
2023-04-03T01:48:14.484Z,95063.00
2023-04-03T01:49:14.548Z,95057.00
2023-04-03T01:50:14.538Z,95059.00
2023-04-03T01:51:14.589Z,95059.00
2023-04-03T01:52:14.590Z,95061.00
2023-04-03T01:53:14.642Z,95059.00
2023-04-03T01:54:14.668Z,95057.00
2023-04-03T01:55:14.696Z,95059.00
2023-04-03T01:56:14.691Z,95057.00
2023-04-03T01:57:14.750Z,95061.00
2023-04-03T01:58:14.740Z,95057.00
2023-04-03T01:59:14.762Z,95059.00
2023-04-03T02:00:14.830Z,95059.00
2023-04-03T02:01:14.876Z,95059.00
2023-04-03T02:02:14.845Z,95059.00
2023-04-03T02:03:14.864Z,95059.00
2023-04-03T02:04:14.947Z,95059.00
2023-04-03T02:05:14.986Z,95061.00
2023-04-03T02:06:14.981Z,95059.00
2023-04-03T02:07:14.999Z,95059.00
2023-04-03T02:08:15.033Z,95055.00
2023-04-03T02:09:15.074Z,95055.00
2023-04-03T02:10:15.090Z,95055.00
2023-04-03T02:11:15.119Z,95053.00
2023-04-03T02:12:15.178Z,95051.00
2023-04-03T02:13:15.172Z,95053.00
2023-04-03T02:14:15.237Z,95055.00
2023-04-03T02:15:15.244Z,95053.00
2023-04-03T02:16:15.386Z,95053.00
2023-04-03T02:17:15.269Z,95051.00
2023-04-03T02:18:15.320Z,95053.00
2023-04-03T02:19:15.383Z,95053.00
2023-04-03T02:20:15.367Z,95055.00
2023-04-03T02:21:15.452Z,95055.00
2023-04-03T02:22:15.445Z,95055.00
2023-04-03T02:23:15.493Z,95055.00
2023-04-03T02:24:15.493Z,95055.00
2023-04-03T02:25:15.509Z,95059.00
2023-04-03T02:26:15.559Z,95057.00
2023-04-03T02:27:15.529Z,95057.00
2023-04-03T02:28:15.606Z,95055.00
2023-04-03T02:29:15.625Z,95059.00
2023-04-03T02:30:15.667Z,95057.00
2023-04-03T02:31:15.813Z,95055.00
2023-04-03T02:32:15.721Z,95057.00
2023-04-03T02:33:15.700Z,95057.00
2023-04-03T02:34:15.766Z,95057.00
2023-04-03T02:35:16.391Z,95057.00
2023-04-03T02:36:15.830Z,95057.00
2023-04-03T02:37:15.920Z,95057.00
2023-04-03T02:38:15.899Z,95057.00
2023-04-03T02:39:15.917Z,95059.00
2023-04-03T02:40:15.940Z,95059.00
2023-04-03T02:41:15.982Z,95061.00
2023-04-03T02:42:16.004Z,95061.00
2023-04-03T02:43:16.017Z,95063.00
2023-04-03T02:44:16.118Z,95061.00
2023-04-03T02:45:16.088Z,95063.00
2023-04-03T02:46:16.177Z,95063.00
2023-04-03T02:47:16.156Z,95063.00
2023-04-03T02:48:16.241Z,95063.00
2023-04-03T02:49:16.244Z,95063.00
2023-04-03T02:50:16.293Z,95063.00
2023-04-03T02:51:16.311Z,95063.00
2023-04-03T02:52:16.359Z,95065.00
2023-04-03T02:53:16.399Z,95065.00
2023-04-03T02:54:16.420Z,95065.00
2023-04-03T02:55:16.486Z,95065.00
2023-04-03T02:56:16.505Z,95065.00
2023-04-03T02:57:16.558Z,95065.00
2023-04-03T02:58:16.554Z,95067.00
2023-04-03T02:59:16.576Z,95065.00
2023-04-03T03:00:16.630Z,95061.00
2023-04-03T03:01:16.680Z,95061.00
2023-04-03T03:02:16.703Z,95061.00
2023-04-03T03:03:16.738Z,95063.00
2023-04-03T03:04:16.757Z,95065.00
2023-04-03T03:05:16.837Z,95065.00
2023-04-03T03:06:16.832Z,95069.00
2023-04-03T03:07:16.864Z,95067.00
2023-04-03T03:08:16.914Z,95067.00
2023-04-03T03:09:16.902Z,95069.00
2023-04-03T03:10:16.944Z,95069.00
2023-04-03T03:11:16.993Z,95069.00
2023-04-03T03:12:17.021Z,95067.00
2023-04-03T03:13:17.048Z,95067.00
2023-04-03T03:14:17.087Z,95067.00
2023-04-03T03:15:17.084Z,95065.00
2023-04-03T03:16:17.199Z,95067.00
2023-04-03T03:17:17.184Z,95067.00
2023-04-03T03:18:17.202Z,95065.00
2023-04-03T03:19:17.248Z,95065.00
2023-04-03T03:20:17.304Z,95071.00
2023-04-03T03:21:17.366Z,95067.00
2023-04-03T03:22:17.372Z,95069.00
2023-04-03T03:23:17.445Z,95071.00
2023-04-03T03:24:17.436Z,95071.00
2023-04-03T03:25:17.570Z,95071.00
2023-04-03T03:26:17.527Z,95071.00
2023-04-03T03:27:17.548Z,95069.00
2023-04-03T03:28:17.621Z,95071.00
2023-04-03T03:29:17.615Z,95069.00
2023-04-03T03:30:17.671Z,95067.00
2023-04-03T03:31:17.758Z,95065.00
2023-04-03T03:32:17.778Z,95065.00
2023-04-03T03:33:17.788Z,95065.00
2023-04-03T03:34:17.819Z,95065.00
2023-04-03T03:35:17.874Z,95065.00
2023-04-03T03:36:17.928Z,95063.00
2023-04-03T03:37:17.933Z,95065.00
2023-04-03T03:38:18.003Z,95065.00
2023-04-03T03:39:18.069Z,95065.00
2023-04-03T03:40:18.234Z,95067.00
2023-04-03T03:41:18.265Z,95069.00
2023-04-03T03:42:18.190Z,95067.00
2023-04-03T03:43:18.256Z,95067.00
2023-04-03T03:44:18.310Z,95071.00
2023-04-03T03:45:18.317Z,95073.00
2023-04-03T03:46:18.388Z,95071.00
2023-04-03T03:47:18.468Z,95071.00
2023-04-03T03:48:18.462Z,95071.00
2023-04-03T03:49:18.510Z,95073.00
2023-04-03T03:50:18.554Z,95071.00
2023-04-03T03:51:18.598Z,95075.00
2023-04-03T03:52:18.624Z,95071.00
2023-04-03T03:53:18.712Z,95075.00
2023-04-03T03:54:18.746Z,95073.00
2023-04-03T03:55:18.760Z,95075.00
2023-04-03T03:56:18.840Z,95077.00
2023-04-03T03:57:18.975Z,95077.00
2023-04-03T03:58:18.932Z,95075.00
2023-04-03T03:59:18.959Z,95073.00
2023-04-03T04:00:18.992Z,95073.00
2023-04-03T04:01:19.077Z,95075.00
2023-04-03T04:02:19.128Z,95079.00
2023-04-03T04:03:19.183Z,95077.00
2023-04-03T04:04:19.316Z,95079.00
2023-04-03T04:05:19.252Z,95077.00
2023-04-03T04:06:19.317Z,95079.00
2023-04-03T04:07:19.328Z,95077.00
2023-04-03T04:08:19.393Z,95077.00
2023-04-03T04:09:19.431Z,95079.00
2023-04-03T04:10:19.506Z,95081.00
2023-04-03T04:11:19.503Z,95077.00
2023-04-03T04:12:19.588Z,95077.00
2023-04-03T04:13:19.633Z,95077.00
2023-04-03T04:14:19.673Z,95071.00
2023-04-03T04:15:19.731Z,95077.00
2023-04-03T04:16:19.828Z,95073.00
2023-04-03T04:17:19.830Z,95073.00
2023-04-03T04:18:19.858Z,95079.00
2023-04-03T04:19:20.008Z,95073.00
2023-04-03T04:20:19.995Z,95073.00
2023-04-03T04:21:20.049Z,95073.00
2023-04-03T04:22:20.073Z,95073.00
2023-04-03T04:23:20.121Z,95071.00
2023-04-03T04:24:20.205Z,95075.00
2023-04-03T04:25:20.225Z,95073.00
2023-04-03T04:26:20.264Z,95075.00
2023-04-03T04:27:20.313Z,95069.00
2023-04-03T04:28:20.357Z,95071.00
2023-04-03T04:29:20.396Z,95071.00
2023-04-03T04:30:20.448Z,95075.00
2023-04-03T04:31:20.543Z,95075.00
2023-04-03T04:32:20.567Z,95077.00
2023-04-03T04:33:20.656Z,95081.00
2023-04-03T04:34:20.655Z,95079.00
2023-04-03T04:35:20.733Z,95079.00
2023-04-03T04:36:20.854Z,95079.00
2023-04-03T04:37:20.798Z,95081.00
2023-04-03T04:38:20.834Z,95079.00
2023-04-03T04:39:20.909Z,95081.00
2023-04-03T04:40:20.941Z,95085.00
2023-04-03T04:41:20.985Z,95083.00
2023-04-03T04:42:21.039Z,95085.00
2023-04-03T04:43:21.090Z,95085.00
2023-04-03T04:44:21.139Z,95089.00
2023-04-03T04:45:21.176Z,95087.00
2023-04-03T04:46:21.264Z,95090.00
2023-04-03T04:47:21.281Z,95090.00
2023-04-03T04:48:21.351Z,95090.00
2023-04-03T04:49:21.392Z,95092.00
2023-04-03T04:50:21.455Z,95090.00
2023-04-03T04:51:21.451Z,95090.00
2023-04-03T04:52:21.530Z,95087.00
2023-04-03T04:53:21.564Z,95090.00
2023-04-03T04:54:21.648Z,95089.00
2023-04-03T04:55:21.689Z,95092.00
2023-04-03T04:56:21.787Z,95090.00
2023-04-03T04:57:21.951Z,95094.00
2023-04-03T04:58:21.800Z,95094.00
2023-04-03T04:59:22.184Z,95092.00
2023-04-03T05:00:21.941Z,95092.00
2023-04-03T05:01:22.035Z,95090.00
2023-04-03T05:02:22.031Z,95094.00
2023-04-03T05:03:22.108Z,95092.00
2023-04-03T05:04:22.198Z,95094.00
2023-04-03T05:05:22.188Z,95092.00
2023-04-03T05:06:22.229Z,95094.00
2023-04-03T05:07:22.279Z,95098.00
2023-04-03T05:08:22.332Z,95096.00
2023-04-03T05:09:22.404Z,95094.00
2023-04-03T05:10:22.415Z,95096.00
2023-04-03T05:11:22.499Z,95096.00
2023-04-03T05:12:22.467Z,95096.00
2023-04-03T05:13:22.483Z,95098.00
2023-04-03T05:14:22.497Z,95094.00
2023-04-03T05:15:22.495Z,95098.00
2023-04-03T05:16:22.516Z,95098.00
2023-04-03T05:17:22.557Z,95096.00
2023-04-03T05:18:22.428Z,95096.00
2023-04-03T05:19:22.453Z,95096.00
2023-04-03T05:20:22.401Z,95096.00
2023-04-03T05:21:22.414Z,95098.00
2023-04-03T05:22:22.480Z,95100.00
2023-04-03T05:23:22.394Z,95102.00
2023-04-03T05:24:22.410Z,95102.00
2023-04-03T05:25:22.409Z,95100.00
2023-04-03T05:26:22.402Z,95104.00
2023-04-03T05:27:22.407Z,95104.00
2023-04-03T05:28:22.362Z,95104.00
2023-04-03T05:29:22.361Z,95102.00
2023-04-03T05:30:22.342Z,95104.00
2023-04-03T05:31:22.389Z,95104.00
2023-04-03T05:32:22.364Z,95102.00
2023-04-03T05:33:22.365Z,95106.00
2023-04-03T05:34:22.353Z,95106.00
2023-04-03T05:35:22.310Z,95106.00
2023-04-03T05:36:22.359Z,95108.00
2023-04-03T05:37:22.313Z,95110.00
2023-04-03T05:38:22.287Z,95110.00
2023-04-03T05:39:22.297Z,95112.00
2023-04-03T05:40:22.271Z,95112.00
2023-04-03T05:41:22.277Z,95114.00
2023-04-03T05:42:22.268Z,95112.00
2023-04-03T05:43:22.242Z,95112.00
2023-04-03T05:44:22.283Z,95114.00
2023-04-03T05:45:22.240Z,95114.00
2023-04-03T05:46:22.472Z,95116.00
2023-04-03T05:47:22.250Z,95120.00
2023-04-03T05:48:22.220Z,95120.00
2023-04-03T05:49:22.240Z,95118.00
2023-04-03T05:50:22.231Z,95120.00
2023-04-03T05:51:22.194Z,95122.00
2023-04-03T05:52:22.179Z,95124.00
2023-04-03T05:53:22.194Z,95126.00
2023-04-03T05:54:22.221Z,95128.00
2023-04-03T05:55:22.252Z,95128.00
2023-04-03T05:56:22.352Z,95126.00
2023-04-03T05:57:22.430Z,95132.00
2023-04-03T05:58:22.434Z,95132.00
2023-04-03T05:59:22.481Z,95130.00
2023-04-03T06:00:22.549Z,95132.00
2023-04-03T06:01:22.588Z,95130.00
2023-04-03T06:02:22.739Z,95132.00
2023-04-03T06:03:22.763Z,95132.00
2023-04-03T06:04:22.874Z,95132.00
2023-04-03T06:05:22.782Z,95132.00
2023-04-03T06:06:22.847Z,95130.00
2023-04-03T06:07:22.891Z,95130.00
2023-04-03T06:08:23.000Z,95130.00
2023-04-03T06:09:23.018Z,95132.00
2023-04-03T06:10:23.073Z,95132.00
2023-04-03T06:11:23.136Z,95134.00
2023-04-03T06:12:23.175Z,95134.00
2023-04-03T06:13:23.203Z,95134.00
2023-04-03T06:14:23.257Z,95134.00
2023-04-03T06:15:23.321Z,95132.00
2023-04-03T06:16:23.401Z,95132.00
2023-04-03T06:17:23.451Z,95134.00
2023-04-03T06:18:23.428Z,95132.00
2023-04-03T06:19:23.519Z,95134.00
2023-04-03T06:20:23.534Z,95134.00
2023-04-03T06:21:23.568Z,95134.00
2023-04-03T06:22:23.637Z,95132.00
2023-04-03T06:23:23.698Z,95134.00
2023-04-03T06:24:23.724Z,95134.00
2023-04-03T06:25:23.804Z,95132.00
2023-04-03T06:26:23.843Z,95132.00
2023-04-03T06:27:23.892Z,95134.00
2023-04-03T06:28:23.919Z,95136.00
2023-04-03T06:29:23.999Z,95136.00
2023-04-03T06:30:24.193Z,95134.00
2023-04-03T06:31:24.179Z,95136.00
2023-04-03T06:32:24.128Z,95136.00
2023-04-03T06:33:24.187Z,95137.00
2023-04-03T06:34:24.196Z,95137.00
2023-04-03T06:35:24.239Z,95136.00
2023-04-03T06:36:24.332Z,95137.00
2023-04-03T06:37:24.363Z,95137.00
2023-04-03T06:38:24.447Z,95136.00
2023-04-03T06:39:24.433Z,95136.00
2023-04-03T06:40:24.479Z,95136.00
2023-04-03T06:41:24.534Z,95136.00
2023-04-03T06:42:24.553Z,95136.00
2023-04-03T06:43:24.715Z,95136.00
2023-04-03T06:44:24.677Z,95136.00
2023-04-03T06:45:24.690Z,95136.00
2023-04-03T06:46:24.815Z,95136.00
2023-04-03T06:47:24.830Z,95134.00
2023-04-03T06:48:24.839Z,95137.00
2023-04-03T06:49:24.908Z,95139.00
2023-04-03T06:50:24.937Z,95139.00
2023-04-03T06:51:24.985Z,95139.00
2023-04-03T06:52:25.021Z,95139.00
2023-04-03T06:53:25.059Z,95141.00
2023-04-03T06:54:25.086Z,95143.00
2023-04-03T06:55:25.143Z,95143.00
2023-04-03T06:56:25.204Z,95141.00
2023-04-03T06:57:25.232Z,95143.00
2023-04-03T06:58:25.291Z,95143.00
2023-04-03T06:59:25.327Z,95143.00
2023-04-03T07:00:25.477Z,95151.00
2023-04-03T07:01:25.545Z,95151.00
2023-04-03T07:02:25.464Z,95141.00
2023-04-03T07:03:25.449Z,95143.00
2023-04-03T07:04:25.574Z,95151.00
2023-04-03T07:05:25.581Z,95151.00
2023-04-03T07:06:25.630Z,95155.00
2023-04-03T07:07:25.631Z,95155.00
2023-04-03T07:08:25.656Z,95157.00
2023-04-03T07:09:25.754Z,95159.00
2023-04-03T07:10:25.758Z,95157.00
2023-04-03T07:11:25.797Z,95159.00
2023-04-03T07:12:25.828Z,95161.00
2023-04-03T07:13:25.851Z,95159.00
2023-04-03T07:14:25.901Z,95163.00
2023-04-03T07:15:25.942Z,95161.00
2023-04-03T07:16:26.017Z,95161.00
2023-04-03T07:17:26.039Z,95159.00
2023-04-03T07:18:26.073Z,95161.00
2023-04-03T07:19:26.127Z,95163.00
2023-04-03T07:20:26.136Z,95163.00
2023-04-03T07:21:26.193Z,95163.00
2023-04-03T07:22:26.244Z,95163.00
2023-04-03T07:23:26.282Z,95165.00
2023-04-03T07:24:26.305Z,95167.00
2023-04-03T07:25:26.347Z,95169.00
2023-04-03T07:26:26.517Z,95171.00
2023-04-03T07:27:26.428Z,95169.00
2023-04-03T07:28:26.464Z,95171.00
2023-04-03T07:29:26.518Z,95167.00
2023-04-03T07:30:26.548Z,95167.00
2023-04-03T07:31:26.635Z,95165.00
2023-04-03T07:32:26.665Z,95167.00
2023-04-03T07:33:26.688Z,95171.00
2023-04-03T07:34:26.727Z,95169.00
2023-04-03T07:35:26.764Z,95173.00
2023-04-03T07:36:26.829Z,95173.00
2023-04-03T07:37:26.852Z,95171.00
2023-04-03T07:38:26.913Z,95173.00
2023-04-03T07:39:26.891Z,95175.00
2023-04-03T07:40:26.976Z,95175.00
2023-04-03T07:41:26.954Z,95175.00
2023-04-03T07:42:26.991Z,95173.00
2023-04-03T07:43:27.044Z,95177.00
2023-04-03T07:44:27.082Z,95177.00
2023-04-03T07:45:27.125Z,95177.00
2023-04-03T07:46:27.209Z,95177.00
2023-04-03T07:47:27.258Z,95175.00
2023-04-03T07:48:27.232Z,95173.00
2023-04-03T07:49:27.272Z,95175.00
2023-04-03T07:50:27.308Z,95175.00
2023-04-03T07:51:27.460Z,95173.00
2023-04-03T07:52:27.391Z,95173.00
2023-04-03T07:53:27.425Z,95177.00
2023-04-03T07:54:27.478Z,95179.00
2023-04-03T07:55:27.507Z,95175.00
2023-04-03T07:56:27.561Z,95181.00
2023-04-03T07:57:27.693Z,95177.00
2023-04-03T07:58:27.631Z,95177.00
2023-04-03T07:59:27.671Z,95179.00
2023-04-03T08:00:27.692Z,95185.00
2023-04-03T08:01:27.758Z,95179.00
2023-04-03T08:02:27.829Z,95179.00
2023-04-03T08:03:27.919Z,95177.00
2023-04-03T08:04:27.889Z,95181.00
2023-04-03T08:05:27.880Z,95181.00
2023-04-03T08:06:42.125Z,95181.00
2023-04-03T08:07:28.874Z,95181.00
2023-04-03T08:08:27.907Z,95185.00
2023-04-03T08:09:27.856Z,95183.00
2023-04-03T08:10:27.852Z,95185.00
2023-04-03T08:11:27.856Z,95187.00
2023-04-03T08:12:27.860Z,95183.00
2023-04-03T08:13:27.872Z,95181.00
2023-04-03T08:14:27.871Z,95181.00
2023-04-03T08:15:27.821Z,95183.00
2023-04-03T08:16:27.884Z,95183.00
2023-04-03T08:17:27.842Z,95181.00
2023-04-03T08:18:27.833Z,95187.00
2023-04-03T08:19:27.780Z,95185.00
2023-04-03T08:20:27.789Z,95185.00
2023-04-03T08:21:27.790Z,95181.00
2023-04-03T08:22:27.761Z,95181.00
2023-04-03T08:23:27.814Z,95179.00
2023-04-03T08:24:27.769Z,95177.00
2023-04-03T08:25:27.819Z,95179.00
2023-04-03T08:26:27.815Z,95181.00
2023-04-03T08:27:27.856Z,95181.00
2023-04-03T08:28:27.936Z,95181.00
2023-04-03T08:29:27.943Z,95179.00
2023-04-03T08:30:27.965Z,95177.00
2023-04-03T08:31:28.030Z,95181.00
2023-04-03T08:32:28.063Z,95181.00
2023-04-03T08:33:28.016Z,95183.00
2023-04-03T08:34:28.085Z,95181.00
2023-04-03T08:35:28.054Z,95181.00
2023-04-03T08:36:28.136Z,95179.00
2023-04-03T08:37:28.071Z,95179.00
2023-04-03T08:38:28.124Z,95177.00
2023-04-03T08:39:28.119Z,95175.00
2023-04-03T08:40:28.135Z,95177.00
2023-04-03T08:41:28.169Z,95179.00
2023-04-03T08:42:28.198Z,95177.00
2023-04-03T08:43:28.180Z,95177.00
2023-04-03T08:44:28.198Z,95177.00
2023-04-03T08:45:28.297Z,95175.00
2023-04-03T08:46:28.266Z,95177.00
2023-04-03T08:47:28.264Z,95177.00
2023-04-03T08:48:28.285Z,95179.00
2023-04-03T08:49:28.371Z,95177.00
2023-04-03T08:50:29.332Z,95177.00
2023-04-03T08:51:28.250Z,95179.00
2023-04-03T08:52:28.253Z,95177.00
2023-04-03T08:53:28.322Z,95179.00
2023-04-03T08:54:28.332Z,95181.00
2023-04-03T08:55:28.322Z,95177.00
2023-04-03T08:56:28.269Z,95171.00
2023-04-03T08:57:28.330Z,95175.00
2023-04-03T08:58:28.281Z,95173.00
2023-04-03T08:59:28.307Z,95169.00
2023-04-03T09:00:28.265Z,95169.00
2023-04-03T09:01:43.110Z,95169.00
2023-04-03T09:02:28.340Z,95169.00
2023-04-03T09:03:28.280Z,95167.00
2023-04-03T09:04:28.307Z,95171.00
2023-04-03T09:05:28.251Z,95167.00
2023-04-03T09:06:28.260Z,95173.00
2023-04-03T09:07:28.268Z,95169.00
2023-04-03T09:08:28.232Z,95173.00
2023-04-03T09:09:28.233Z,95169.00
2023-04-03T09:10:28.221Z,95175.00
2023-04-03T09:11:28.189Z,95177.00
2023-04-03T09:12:28.249Z,95175.00
2023-04-03T09:13:28.199Z,95173.00
2023-04-03T09:14:28.212Z,95175.00
2023-04-03T09:15:38.550Z,95175.00
2023-04-03T09:16:29.345Z,95173.00
2023-04-03T09:17:28.259Z,95173.00
2023-04-03T09:18:28.180Z,95173.00
2023-04-03T09:19:28.181Z,95173.00
2023-04-03T09:20:28.117Z,95175.00
2023-04-03T09:21:28.124Z,95173.00
2023-04-03T09:22:28.156Z,95175.00
2023-04-03T09:23:28.115Z,95175.00
2023-04-03T09:24:28.118Z,95173.00
2023-04-03T09:25:28.287Z,95175.00
2023-04-03T09:26:28.135Z,95175.00
2023-04-03T09:27:28.121Z,95177.00
2023-04-03T09:28:29.345Z,95175.00
2023-04-03T09:29:28.087Z,95177.00
2023-04-03T09:30:28.060Z,95175.00
2023-04-03T09:31:28.187Z,95173.00
2023-04-03T09:32:28.078Z,95173.00
2023-04-03T09:33:28.133Z,95175.00
2023-04-03T09:34:28.050Z,95169.00
2023-04-03T09:35:36.439Z,95171.00
2023-04-03T09:36:29.153Z,95173.00
2023-04-03T09:37:28.070Z,95173.00
2023-04-03T09:38:28.027Z,95169.00
2023-04-03T09:39:28.046Z,95169.00
2023-04-03T09:40:28.028Z,95169.00
2023-04-03T09:41:28.030Z,95161.00
2023-04-03T09:42:28.000Z,95163.00
2023-04-03T09:43:27.975Z,95163.00
2023-04-03T09:44:27.991Z,95165.00
2023-04-03T09:45:27.980Z,95163.00
2023-04-03T09:46:28.127Z,95161.00
2023-04-03T09:47:27.999Z,95163.00
2023-04-03T09:48:28.025Z,95159.00
2023-04-03T09:49:27.982Z,95161.00
2023-04-03T09:50:27.937Z,95159.00
2023-04-03T09:51:27.927Z,95157.00
2023-04-03T09:52:27.944Z,95163.00
2023-04-03T09:53:27.943Z,95157.00
2023-04-03T09:54:27.916Z,95159.00
2023-04-03T09:55:27.912Z,95157.00
2023-04-03T09:56:28.544Z,95157.00
2023-04-03T09:57:27.950Z,95161.00
2023-04-03T09:58:31.406Z,95159.00
2023-04-03T09:59:28.972Z,95159.00
2023-04-03T10:00:27.985Z,95155.00
2023-04-03T10:01:27.996Z,95155.00
2023-04-03T10:02:27.936Z,95157.00
2023-04-03T10:03:27.957Z,95157.00
2023-04-03T10:04:27.954Z,95151.00
2023-04-03T10:05:28.015Z,95153.00
2023-04-03T10:06:27.931Z,95153.00
2023-04-03T10:07:27.913Z,95141.00
2023-04-03T10:08:27.908Z,95153.00
2023-04-03T10:09:27.874Z,95151.00
2023-04-03T10:10:27.913Z,95151.00
2023-04-03T10:11:27.936Z,95151.00
2023-04-03T10:12:27.999Z,95153.00
2023-04-03T10:13:28.307Z,95151.00
2023-04-03T10:14:28.088Z,95143.00
2023-04-03T10:15:28.167Z,95151.00
2023-04-03T10:16:28.257Z,95155.00
2023-04-03T10:17:28.299Z,95151.00
2023-04-03T10:18:28.380Z,95153.00
2023-04-03T10:19:28.396Z,95151.00
2023-04-03T10:20:28.467Z,95157.00
2023-04-03T10:21:28.576Z,95155.00
2023-04-03T10:22:28.538Z,95151.00
2023-04-03T10:23:28.609Z,95157.00
2023-04-03T10:24:28.664Z,95155.00
2023-04-03T10:25:28.700Z,95153.00
2023-04-03T10:26:28.793Z,95157.00
2023-04-03T10:27:28.808Z,95153.00
2023-04-03T10:28:28.898Z,95155.00
2023-04-03T10:29:28.977Z,95153.00
2023-04-03T10:30:29.029Z,95155.00
2023-04-03T10:31:29.211Z,95153.00
2023-04-03T10:32:29.195Z,95155.00
2023-04-03T10:33:29.242Z,95143.00
2023-04-03T10:34:29.279Z,95151.00
2023-04-03T10:35:29.357Z,95159.00
2023-04-03T10:36:29.415Z,95155.00
2023-04-03T10:37:29.576Z,95151.00
2023-04-03T10:38:29.541Z,95155.00
2023-04-03T10:39:29.623Z,95155.00
2023-04-03T10:40:29.698Z,95151.00
2023-04-03T10:41:29.737Z,95153.00
2023-04-03T10:42:29.826Z,95153.00
2023-04-03T10:43:29.845Z,95157.00
2023-04-03T10:44:29.871Z,95155.00
2023-04-03T10:45:30.033Z,95159.00
2023-04-03T10:46:30.134Z,95157.00
2023-04-03T10:47:30.992Z,95157.00
2023-04-03T10:48:30.293Z,95155.00
2023-04-03T10:49:30.374Z,95155.00
2023-04-03T10:50:30.396Z,95155.00
2023-04-03T10:51:30.480Z,95155.00
2023-04-03T10:52:30.524Z,95151.00
2023-04-03T10:53:30.690Z,95157.00
2023-04-03T10:54:30.643Z,95151.00
2023-04-03T10:55:30.684Z,95155.00
2023-04-03T10:56:30.765Z,95151.00
2023-04-03T10:57:30.809Z,95159.00
2023-04-03T10:58:30.890Z,95143.00
2023-04-03T10:59:30.911Z,95153.00
2023-04-03T11:00:30.957Z,95157.00
2023-04-03T11:01:31.055Z,95151.00
2023-04-03T11:02:31.701Z,95143.00
2023-04-03T11:03:31.215Z,95143.00
2023-04-03T11:04:31.190Z,95141.00
2023-04-03T11:05:31.236Z,95139.00
2023-04-03T11:06:31.276Z,95141.00
2023-04-03T11:07:31.372Z,95139.00
2023-04-03T11:08:31.482Z,95139.00
2023-04-03T11:09:31.520Z,95137.00
2023-04-03T11:10:31.451Z,95141.00
2023-04-03T11:11:31.532Z,95136.00
2023-04-03T11:12:31.548Z,95137.00
2023-04-03T11:13:31.604Z,95137.00
2023-04-03T11:14:31.647Z,95137.00
2023-04-03T11:15:31.737Z,95134.00
2023-04-03T11:16:35.627Z,95137.00
2023-04-03T11:17:32.805Z,95136.00
2023-04-03T11:18:31.771Z,95136.00
2023-04-03T11:19:31.754Z,95136.00
2023-04-03T11:20:31.745Z,95134.00
2023-04-03T11:21:31.744Z,95132.00
2023-04-03T11:22:31.726Z,95132.00
2023-04-03T11:23:46.058Z,95132.00
2023-04-03T11:24:32.728Z,95132.00
2023-04-03T11:25:31.789Z,95134.00
2023-04-03T11:26:31.763Z,95130.00
2023-04-03T11:27:31.718Z,95130.00
2023-04-03T11:28:31.687Z,95134.00
2023-04-03T11:29:35.544Z,95130.00
2023-04-03T11:30:31.743Z,95134.00
2023-04-03T11:31:31.748Z,95136.00
2023-04-03T11:32:31.704Z,95134.00
2023-04-03T11:33:31.658Z,95134.00
2023-04-03T11:34:31.662Z,95130.00
2023-04-03T11:35:31.626Z,95132.00
2023-04-03T11:36:35.745Z,95130.00
2023-04-03T11:37:32.656Z,95128.00
2023-04-03T11:38:31.614Z,95137.00
2023-04-03T11:39:31.610Z,95128.00
2023-04-03T11:40:31.621Z,95128.00
2023-04-03T11:41:31.683Z,95130.00
2023-04-03T11:42:31.618Z,95130.00
2023-04-03T11:43:32.588Z,95136.00
2023-04-03T11:44:31.544Z,95130.00